Time;durP1;ratioP1;P1;durP2;ratioP2;P2;SDS_P1;SDS_P2;PMS_P1;PMS_P2;Temp;Humidity;BMP_temperature;BMP_pressure;BME280_temperature;BME280_humidity;BME280_pressure;Samples;Min_cycle;Max_cycle;Signal;HPM_P1;HPM_P2
2021/10/03 00:01:45;;;;;;;5.30;4.87;;;17.70;99.90;;;;;;5074257;28;20440;-58
2021/10/03 00:04:12;;;;;;;5.40;4.87;;;17.70;99.90;;;;;;5074179;28;20401;-58
2021/10/03 00:06:38;;;;;;;5.37;4.97;;;17.70;99.90;;;;;;5074637;28;20766;-58
2021/10/03 00:09:03;;;;;;;5.40;5.00;;;17.60;99.90;;;;;;5074539;28;20500;-57
2021/10/03 00:11:29;;;;;;;5.27;4.77;;;17.50;99.90;;;;;;5074331;28;20235;-56
2021/10/03 00:13:55;;;;;;;6.93;4.93;;;17.60;99.90;;;;;;5074275;28;20185;-58
2021/10/03 00:16:21;;;;;;;5.33;4.83;;;17.60;99.90;;;;;;5074632;28;20412;-58
2021/10/03 00:18:46;;;;;;;5.90;5.40;;;17.40;99.90;;;;;;5073596;28;20451;-57
2021/10/03 00:21:13;;;;;;;5.63;4.80;;;17.30;99.90;;;;;;5074147;28;20193;-58
2021/10/03 00:23:39;;;;;;;5.20;4.40;;;17.30;99.90;;;;;;5074014;28;20166;-57
2021/10/03 00:26:06;;;;;;;5.73;5.23;;;17.30;99.90;;;;;;5074220;28;20442;-56
2021/10/03 00:28:31;;;;;;;5.10;4.70;;;17.30;99.90;;;;;;5074019;28;20470;-55
2021/10/03 00:30:57;;;;;;;7.43;5.20;;;17.40;99.90;;;;;;5074230;28;20435;-55
2021/10/03 00:33:23;;;;;;;5.40;4.90;;;17.50;99.90;;;;;;5073512;28;20242;-56
2021/10/03 00:35:49;;;;;;;6.10;5.60;;;17.50;99.90;;;;;;5073904;28;20165;-58
2021/10/03 00:38:17;;;;;;;4.90;4.40;;;17.50;99.90;;;;;;5073613;28;20193;-57
2021/10/03 00:40:43;;;;;;;5.63;5.03;;;17.40;99.90;;;;;;5073964;28;20777;-57
2021/10/03 00:43:11;;;;;;;4.30;4.00;;;17.40;99.90;;;;;;5073668;28;21017;-59
2021/10/03 00:45:38;;;;;;;6.03;5.43;;;17.40;99.90;;;;;;5073859;28;20400;-58
2021/10/03 00:48:04;;;;;;;5.27;4.77;;;17.10;99.90;;;;;;5072999;28;20806;-56
2021/10/03 00:50:31;;;;;;;5.03;4.40;;;17.00;99.90;;;;;;5060328;28;20416;-57
2021/10/03 00:52:57;;;;;;;5.33;4.77;;;17.00;99.90;;;;;;5053560;28;20419;-57
2021/10/03 00:55:22;;;;;;;5.37;4.40;;;17.00;99.90;;;;;;5053561;28;20767;-58
2021/10/03 00:57:52;;;;;;;9.50;5.17;;;17.10;99.90;;;;;;5053664;28;20530;-58
2021/10/03 01:00:24;;;;;;;5.27;4.77;;;17.20;99.90;;;;;;5053922;28;20528;-58
2021/10/03 01:02:50;;;;;;;5.07;4.67;;;17.30;99.90;;;;;;5053443;28;20440;-55
2021/10/03 01:05:16;;;;;;;4.70;4.30;;;17.40;99.90;;;;;;5053570;28;20955;-58
2021/10/03 01:07:42;;;;;;;4.70;4.30;;;17.50;99.90;;;;;;5053284;28;20190;-57
2021/10/03 01:10:10;;;;;;;4.60;4.20;;;17.40;99.90;;;;;;5053031;28;20401;-58
2021/10/03 01:12:36;;;;;;;4.10;3.80;;;17.40;99.90;;;;;;5053838;28;20173;-58
2021/10/03 01:15:04;;;;;;;5.73;4.20;;;17.50;99.90;;;;;;5053181;28;20780;-58
2021/10/03 01:17:31;;;;;;;5.27;4.47;;;17.60;99.90;;;;;;5060031;28;20666;-56
2021/10/03 01:19:57;;;;;;;5.60;4.80;;;17.60;99.90;;;;;;5073154;28;20909;-57
2021/10/03 01:22:23;;;;;;;5.10;4.60;;;17.70;99.90;;;;;;5073305;28;20455;-58
2021/10/03 01:24:49;;;;;;;4.13;3.77;;;17.70;99.90;;;;;;5070957;28;20427;-59
2021/10/03 01:27:15;;;;;;;4.10;3.67;;;17.80;99.90;;;;;;5070974;28;20792;-58
2021/10/03 01:29:42;;;;;;;6.13;4.17;;;17.90;99.90;;;;;;5073055;28;20407;-55
2021/10/03 01:32:08;;;;;;;5.50;5.00;;;18.00;99.90;;;;;;5073043;28;20662;-57
2021/10/03 01:34:34;;;;;;;5.50;5.00;;;18.10;99.90;;;;;;5073047;28;20884;-58
2021/10/03 01:36:59;;;;;;;5.03;4.60;;;18.10;99.90;;;;;;5073118;28;20519;-56
2021/10/03 01:39:25;;;;;;;5.90;5.40;;;18.10;99.90;;;;;;5072823;28;20351;-57
2021/10/03 01:41:50;;;;;;;5.00;4.50;;;18.10;99.90;;;;;;5072901;28;20268;-57
2021/10/03 01:44:16;;;;;;;5.67;5.10;;;18.10;99.90;;;;;;5073026;28;20694;-58
2021/10/03 01:46:43;;;;;;;5.00;4.57;;;18.10;99.90;;;;;;5072773;28;20227;-59
2021/10/03 01:49:09;;;;;;;4.87;4.47;;;18.10;99.90;;;;;;5072905;28;20248;-55
2021/10/03 01:51:34;;;;;;;4.60;4.20;;;18.00;99.90;;;;;;5072878;28;20840;-57
2021/10/03 01:54:00;;;;;;;4.87;4.47;;;18.00;99.90;;;;;;5072652;28;20166;-56
2021/10/03 01:56:29;;;;;;;6.10;4.90;;;17.90;99.90;;;;;;5072843;28;20162;-55
2021/10/03 01:58:57;;;;;;;4.17;3.77;;;17.90;99.90;;;;;;5072697;28;20696;-57
2021/10/03 02:01:27;;;;;;;4.80;4.30;;;17.90;99.90;;;;;;5072870;28;20479;-58
2021/10/03 02:03:53;;;;;;;4.63;4.23;;;17.90;99.90;;;;;;5073375;28;20530;-57
2021/10/03 02:06:19;;;;;;;5.20;4.53;;;18.00;99.90;;;;;;5076668;28;20823;-59
2021/10/03 02:08:51;;;;;;;4.80;4.40;;;18.00;99.90;;;;;;5076420;28;20256;-58
2021/10/03 02:11:16;;;;;;;4.80;4.43;;;18.00;99.90;;;;;;5076571;28;20955;-56
2021/10/03 02:13:42;;;;;;;5.80;4.83;;;18.00;99.90;;;;;;5076611;28;20399;-55
2021/10/03 02:16:07;;;;;;;5.30;4.50;;;18.00;99.90;;;;;;5076862;28;20166;-59
2021/10/03 02:18:36;;;;;;;5.03;4.53;;;17.90;99.90;;;;;;5075959;28;20213;-58
2021/10/03 02:21:04;;;;;;;4.90;4.43;;;17.90;99.90;;;;;;5076663;28;20178;-58
2021/10/03 02:23:30;;;;;;;4.87;4.47;;;17.90;99.90;;;;;;5076458;28;20427;-59
2021/10/03 02:25:56;;;;;;;5.07;4.57;;;17.90;99.90;;;;;;5076607;28;20403;-58
2021/10/03 02:28:24;;;;;;;5.90;5.40;;;17.70;99.90;;;;;;5076404;28;20424;-58
2021/10/03 02:30:53;;;;;;;5.37;4.97;;;17.60;99.90;;;;;;5076500;28;20396;-57
2021/10/03 02:33:20;;;;;;;4.97;4.50;;;17.60;99.90;;;;;;5076068;28;20396;-59
2021/10/03 02:35:47;;;;;;;4.77;4.27;;;17.60;99.90;;;;;;5076124;28;20408;-55
2021/10/03 02:38:15;;;;;;;4.53;4.13;;;17.60;99.90;;;;;;5076827;28;20427;-59
2021/10/03 02:40:43;;;;;;;5.23;4.73;;;17.70;99.90;;;;;;5075935;28;20408;-59
2021/10/03 02:43:09;;;;;;;5.13;4.60;;;17.70;99.90;;;;;;5075978;28;20455;-59
2021/10/03 02:45:39;;;;;;;5.20;4.70;;;17.70;99.90;;;;;;5065170;28;20969;-59
2021/10/03 02:48:05;;;;;;;5.10;4.70;;;17.80;99.90;;;;;;5067525;28;20462;-56
2021/10/03 02:50:31;;;;;;;4.40;4.00;;;17.80;99.90;;;;;;5076196;28;20407;-53
2021/10/03 02:52:56;;;;;;;4.83;4.43;;;17.70;99.90;;;;;;5075828;28;20598;-56
2021/10/03 02:55:22;;;;;;;4.93;4.10;;;17.70;99.90;;;;;;5075648;28;20162;-57
2021/10/03 02:57:48;;;;;;;5.80;4.40;;;17.70;99.90;;;;;;5075668;28;20189;-54
2021/10/03 03:00:14;;;;;;;5.97;4.60;;;17.70;99.90;;;;;;5075976;28;20468;-58
2021/10/03 03:02:40;;;;;;;5.67;5.17;;;17.50;99.90;;;;;;5075375;28;20212;-58
2021/10/03 03:05:08;;;;;;;6.93;4.83;;;17.50;99.90;;;;;;5075858;28;20491;-54
2021/10/03 03:07:35;;;;;;;4.70;4.30;;;17.40;99.90;;;;;;5075788;28;20189;-58
2021/10/03 03:10:01;;;;;;;4.97;4.50;;;17.40;99.90;;;;;;5075300;28;20739;-53
2021/10/03 03:12:26;;;;;;;4.90;4.50;;;17.30;99.90;;;;;;5075766;28;20414;-57
2021/10/03 03:14:52;;;;;;;4.30;3.90;;;17.10;99.90;;;;;;5075503;28;20403;-58
2021/10/03 03:17:19;;;;;;;4.80;4.30;;;17.00;99.90;;;;;;5075136;28;20304;-58
2021/10/03 03:19:45;;;;;;;6.53;4.97;;;17.10;99.90;;;;;;5075022;28;20170;-58
2021/10/03 03:22:12;;;;;;;4.77;4.40;;;17.20;99.90;;;;;;5075528;28;20447;-54
2021/10/03 03:24:38;;;;;;;4.60;4.20;;;17.20;99.90;;;;;;5075268;28;20397;-58
2021/10/03 03:27:04;;;;;;;5.10;4.60;;;17.20;99.90;;;;;;5075442;28;20760;-58
2021/10/03 03:29:30;;;;;;;4.70;4.30;;;17.10;99.90;;;;;;5075232;28;20425;-57
2021/10/03 03:31:56;;;;;;;6.23;4.60;;;17.10;99.90;;;;;;5075110;28;20505;-54
2021/10/03 03:34:22;;;;;;;4.53;4.13;;;17.20;99.90;;;;;;5074841;28;20433;-57
2021/10/03 03:36:48;;;;;;;5.13;4.63;;;17.20;99.90;;;;;;5074915;28;20249;-58
2021/10/03 03:39:13;;;;;;;5.73;4.40;;;17.20;99.90;;;;;;5074833;28;20436;-59
2021/10/03 03:41:39;;;;;;;5.00;4.50;;;17.20;99.90;;;;;;5075390;28;20213;-54
2021/10/03 03:44:04;;;;;;;4.03;3.70;;;17.20;99.90;;;;;;5075149;28;20654;-58
2021/10/03 03:46:30;;;;;;;4.23;3.83;;;17.30;99.90;;;;;;5074828;28;20165;-58
2021/10/03 03:48:56;;;;;;;4.53;4.10;;;17.30;99.90;;;;;;5074564;28;20260;-56
2021/10/03 03:51:21;;;;;;;4.70;4.20;;;17.20;99.90;;;;;;5074788;28;20167;-58
2021/10/03 03:53:47;;;;;;;3.90;3.60;;;17.20;99.90;;;;;;5074784;28;20170;-58
2021/10/03 03:56:12;;;;;;;4.00;3.70;;;17.30;99.90;;;;;;5074770;28;20261;-58
2021/10/03 03:58:38;;;;;;;4.57;4.03;;;17.40;99.90;;;;;;5074802;28;20190;-57
2021/10/03 04:01:04;;;;;;;4.37;3.97;;;17.40;99.90;;;;;;5074991;28;20169;-57
2021/10/03 04:03:29;;;;;;;4.93;3.67;;;17.40;99.90;;;;;;5074403;28;20173;-58
2021/10/03 04:05:55;;;;;;;5.00;3.63;;;17.40;99.90;;;;;;5074488;28;20600;-59
2021/10/03 04:08:23;;;;;;;4.23;3.83;;;17.50;99.90;;;;;;5073072;28;20189;-56
2021/10/03 04:10:52;;;;;;;4.10;3.80;;;17.50;99.90;;;;;;5073908;28;20184;-58
2021/10/03 04:13:19;;;;;;;4.63;4.00;;;17.50;99.90;;;;;;5074354;28;20400;-58
2021/10/03 04:15:45;;;;;;;4.40;4.00;;;17.50;99.90;;;;;;5074299;28;20416;-59
2021/10/03 04:18:11;;;;;;;4.00;3.60;;;17.40;99.90;;;;;;5083571;22;20488;-57
2021/10/03 04:20:36;;;;;;;3.53;3.20;;;17.50;99.90;;;;;;5050965;28;20235;-59
2021/10/03 04:23:02;;;;;;;4.80;4.03;;;17.40;99.90;;;;;;5054136;28;20506;-59
2021/10/03 04:25:28;;;;;;;5.50;3.60;;;17.30;99.90;;;;;;5053952;28;20162;-59
2021/10/03 04:27:54;;;;;;;3.40;3.10;;;17.20;99.90;;;;;;5046527;28;20513;-59
2021/10/03 04:30:19;;;;;;;3.57;3.27;;;17.30;99.90;;;;;;5034162;28;20631;-59
2021/10/03 04:32:45;;;;;;;3.73;2.87;;;17.40;99.90;;;;;;5033876;28;20175;-59
2021/10/03 04:35:11;;;;;;;6.93;3.93;;;17.20;99.90;;;;;;5034398;28;20171;-57
2021/10/03 04:37:36;;;;;;;3.63;3.30;;;17.30;99.90;;;;;;5033960;28;20190;-59
2021/10/03 04:40:04;;;;;;;4.63;3.40;;;17.30;99.90;;;;;;5030542;28;20174;-58
2021/10/03 04:42:29;;;;;;;4.13;3.73;;;17.30;99.90;;;;;;5034155;28;20186;-58
2021/10/03 04:44:55;;;;;;;3.50;3.20;;;17.30;99.90;;;;;;5033910;28;20413;-59
2021/10/03 04:47:21;;;;;;;4.83;3.87;;;17.40;99.90;;;;;;5033603;28;20187;-55
2021/10/03 04:49:48;;;;;;;3.80;3.50;;;17.50;99.90;;;;;;5033743;28;20174;-58
2021/10/03 04:52:15;;;;;;;3.93;3.53;;;17.50;99.90;;;;;;5033709;28;20163;-58
2021/10/03 04:54:40;;;;;;;5.13;3.73;;;17.70;99.90;;;;;;5033733;28;20410;-57
2021/10/03 04:57:06;;;;;;;4.20;3.57;;;17.70;99.90;;;;;;5033644;28;20402;-58
2021/10/03 04:59:31;;;;;;;4.83;3.33;;;17.70;99.90;;;;;;5033745;28;20233;-58
2021/10/03 05:01:58;;;;;;;3.47;3.00;;;17.50;99.90;;;;;;5033488;28;20200;-58
2021/10/03 05:04:24;;;;;;;4.40;3.50;;;17.60;99.90;;;;;;5033451;28;20533;-58
2021/10/03 05:06:50;;;;;;;3.70;3.40;;;17.80;99.90;;;;;;5033816;28;20491;-57
2021/10/03 05:09:16;;;;;;;3.27;2.90;;;17.70;99.90;;;;;;5033096;28;20468;-55
2021/10/03 05:11:41;;;;;;;3.10;2.60;;;17.60;99.90;;;;;;5033464;28;20178;-55
2021/10/03 05:14:07;;;;;;;3.50;3.20;;;17.70;99.90;;;;;;5033461;28;20659;-54
2021/10/03 05:16:36;;;;;;;5.03;3.40;;;17.90;99.90;;;;;;5033392;28;20167;-56
2021/10/03 05:19:03;;;;;;;4.43;3.80;;;18.10;99.90;;;;;;5032898;28;20229;-57
2021/10/03 05:21:29;;;;;;;3.67;3.30;;;18.10;99.90;;;;;;5033686;28;20847;-56
2021/10/03 05:23:55;;;;;;;3.03;2.83;;;18.00;99.90;;;;;;5033086;28;20496;-56
2021/10/03 05:26:20;;;;;;;3.33;3.03;;;18.10;99.90;;;;;;5033416;28;20402;-57
2021/10/03 05:28:46;;;;;;;4.23;3.10;;;18.10;99.90;;;;;;5033342;28;20703;-58
2021/10/03 05:31:12;;;;;;;3.40;3.10;;;18.20;99.90;;;;;;5033610;28;20178;-58
2021/10/03 05:33:39;;;;;;;2.90;2.70;;;18.30;99.90;;;;;;5033190;28;20168;-56
2021/10/03 05:36:05;;;;;;;2.70;2.50;;;18.30;99.90;;;;;;5033252;28;20668;-59
2021/10/03 05:38:31;;;;;;;3.30;2.80;;;18.40;99.90;;;;;;5032239;28;20425;-58
2021/10/03 05:40:57;;;;;;;3.67;2.80;;;18.30;99.90;;;;;;5032984;28;20409;-59
2021/10/03 05:43:23;;;;;;;3.43;3.13;;;18.20;99.90;;;;;;5033165;28;20512;-58
2021/10/03 05:45:48;;;;;;;3.90;3.20;;;18.20;99.90;;;;;;5033594;28;20395;-57
2021/10/03 05:48:14;;;;;;;3.00;2.80;;;18.10;99.90;;;;;;5032856;28;20195;-59
2021/10/03 05:50:40;;;;;;;3.30;2.70;;;18.20;99.90;;;;;;5033028;28;20559;-59
2021/10/03 05:53:07;;;;;;;8.07;3.50;;;18.00;99.90;;;;;;5033337;28;20163;-57
2021/10/03 05:55:33;;;;;;;3.30;3.10;;;18.10;99.90;;;;;;5033096;28;20174;-60
2021/10/03 05:57:58;;;;;;;4.73;3.30;;;18.20;99.90;;;;;;5033064;28;20418;-58
2021/10/03 06:00:24;;;;;;;4.10;3.40;;;18.10;99.90;;;;;;5032977;28;20193;-59
2021/10/03 06:02:50;;;;;;;3.33;3.03;;;18.10;99.90;;;;;;5032884;28;20650;-58
2021/10/03 06:05:15;;;;;;;4.47;3.13;;;17.90;99.90;;;;;;5033020;28;20170;-59
2021/10/03 06:07:41;;;;;;;3.17;2.90;;;17.80;99.90;;;;;;5033248;28;20274;-57
2021/10/03 06:10:09;;;;;;;3.27;2.97;;;17.80;99.90;;;;;;5033145;28;20247;-56
2021/10/03 06:12:35;;;;;;;3.03;2.77;;;17.90;99.90;;;;;;5033232;28;20175;-58
2021/10/03 06:15:00;;;;;;;3.10;2.80;;;17.90;99.90;;;;;;5032986;28;20460;-57
2021/10/03 06:17:26;;;;;;;3.47;2.97;;;18.00;99.90;;;;;;5032275;28;20496;-58
2021/10/03 06:19:51;;;;;;;4.13;3.77;;;18.10;99.90;;;;;;5033140;28;20194;-59
2021/10/03 06:22:21;;;;;;;3.93;3.53;;;18.10;99.90;;;;;;5032718;28;20227;-58
2021/10/03 06:24:47;;;;;;;3.80;3.37;;;17.80;99.90;;;;;;5032674;28;20584;-57
2021/10/03 06:27:13;;;;;;;3.53;3.23;;;17.90;99.90;;;;;;5032684;28;20460;-57
2021/10/03 06:29:38;;;;;;;3.97;2.93;;;18.00;99.90;;;;;;5033118;28;20175;-57
2021/10/03 06:32:04;;;;;;;3.23;2.97;;;18.20;99.90;;;;;;5032974;28;20171;-53
2021/10/03 06:34:30;;;;;;;5.60;3.80;;;18.20;99.90;;;;;;5032567;28;20179;-58
2021/10/03 06:36:55;;;;;;;3.30;3.10;;;18.50;99.90;;;;;;5032895;28;20422;-58
2021/10/03 06:39:21;;;;;;;5.20;3.17;;;18.70;99.90;;;;;;5032469;28;20191;-58
2021/10/03 06:41:47;;;;;;;9.83;3.10;;;18.70;99.90;;;;;;5016168;28;20281;-59
2021/10/03 06:44:13;;;;;;;3.80;3.00;;;18.60;99.90;;;;;;5013991;28;20172;-58
2021/10/03 06:46:39;;;;;;;3.77;3.47;;;18.90;99.90;;;;;;5018555;28;20410;-59
2021/10/03 06:49:05;;;;;;;3.57;3.27;;;19.20;99.90;;;;;;5030777;28;20199;-54
2021/10/03 06:51:31;;;;;;;3.43;3.13;;;19.30;99.90;;;;;;5039032;28;20432;-58
2021/10/03 06:53:57;;;;;;;4.80;2.60;;;19.10;99.90;;;;;;5038169;28;20179;-58
2021/10/03 06:56:23;;;;;;;3.40;3.10;;;19.10;99.90;;;;;;5037028;28;20505;-56
2021/10/03 06:58:48;;;;;;;4.00;3.20;;;19.40;99.90;;;;;;5037154;28;20199;-57
2021/10/03 07:01:15;;;;;;;4.23;3.27;;;19.60;99.90;;;;;;5038157;28;20414;-58
2021/10/03 07:03:41;;;;;;;3.13;2.83;;;19.50;99.90;;;;;;5036694;28;20164;-55
2021/10/03 07:06:07;;;;;;;2.97;2.47;;;19.40;99.90;;;;;;5036759;28;20398;-58
2021/10/03 07:08:33;;;;;;;3.30;3.00;;;19.60;99.90;;;;;;5036121;28;20934;-57
2021/10/03 07:10:59;;;;;;;3.50;3.20;;;19.80;99.90;;;;;;5035098;28;20441;-58
2021/10/03 07:13:24;;;;;;;4.13;2.63;;;19.70;99.90;;;;;;5026935;28;20423;-57
2021/10/03 07:15:50;;;;;;;3.37;3.07;;;19.50;99.90;;;;;;5016218;28;20541;-58
2021/10/03 07:18:16;;;;;;;3.10;2.80;;;19.60;99.90;;;;;;5024910;28;20598;-58
2021/10/03 07:20:42;;;;;;;3.37;3.07;;;19.60;99.90;;;;;;5036144;28;20174;-57
2021/10/03 07:23:07;;;;;;;3.70;2.93;;;19.50;99.90;;;;;;5035459;28;20274;-59
2021/10/03 07:25:33;;;;;;;3.80;2.93;;;19.50;99.90;;;;;;5035905;28;20160;-60
2021/10/03 07:27:59;;;;;;;5.90;3.40;;;19.40;99.90;;;;;;5035558;28;20615;-53
2021/10/03 07:30:24;;;;;;;2.73;2.53;;;19.40;99.90;;;;;;5035839;28;20493;-55
2021/10/03 07:32:50;;;;;;;3.63;2.77;;;19.50;99.90;;;;;;5035918;28;20172;-56
2021/10/03 07:35:16;;;;;;;3.13;2.87;;;19.70;99.90;;;;;;5036422;28;20628;-57
2021/10/03 07:37:41;;;;;;;3.33;2.87;;;19.60;99.90;;;;;;5028094;28;20641;-55
2021/10/03 07:40:08;;;;;;;3.13;2.70;;;19.70;99.90;;;;;;5041934;28;20178;-56
2021/10/03 07:42:34;;;;;;;3.93;2.77;;;19.90;99.90;;;;;;5036715;28;20199;-58
2021/10/03 07:44:59;;;;;;;2.67;2.47;;;20.20;99.90;;;;;;5036442;28;20405;-54
2021/10/03 07:47:25;;;;;;;2.77;2.47;;;20.10;99.90;;;;;;5036167;28;21231;-59
2021/10/03 07:49:50;;;;;;;2.73;2.50;;;20.40;99.90;;;;;;5034740;28;20167;-59
2021/10/03 07:52:16;;;;;;;3.00;2.70;;;20.70;99.90;;;;;;5034792;28;20167;-58
2021/10/03 07:54:42;;;;;;;3.20;2.90;;;20.90;99.90;;;;;;5035422;28;20636;-59
2021/10/03 07:57:07;;;;;;;3.60;3.30;;;20.90;99.90;;;;;;5037075;28;20254;-59
2021/10/03 07:59:33;;;;;;;10.57;3.33;;;21.00;99.90;;;;;;5037330;28;20175;-52
2021/10/03 08:01:59;;;;;;;3.83;3.10;;;21.00;99.90;;;;;;5036824;28;20214;-59
2021/10/03 08:04:24;;;;;;;3.50;3.20;;;20.90;99.90;;;;;;5038063;28;20491;-58
2021/10/03 08:06:50;;;;;;;3.23;2.93;;;20.90;99.90;;;;;;5035750;28;20167;-59
2021/10/03 08:09:16;;;;;;;3.60;3.30;;;21.20;99.90;;;;;;5034444;28;20659;-53
2021/10/03 08:11:42;;;;;;;3.10;2.80;;;21.40;99.90;;;;;;5034524;28;20225;-52
2021/10/03 08:14:08;;;;;;;3.07;2.77;;;21.30;99.90;;;;;;5034622;28;20221;-52
2021/10/03 08:16:34;;;;;;;3.33;3.03;;;21.30;99.90;;;;;;5034650;28;20199;-53
2021/10/03 08:19:00;;;;;;;3.43;3.13;;;21.20;99.90;;;;;;5034233;28;20457;-52
2021/10/03 08:21:27;;;;;;;3.50;2.70;;;21.30;99.90;;;;;;5034536;28;20224;-50
2021/10/03 08:23:53;;;;;;;4.00;2.67;;;21.40;99.90;;;;;;5034259;28;20210;-51
2021/10/03 08:26:18;;;;;;;3.83;3.43;;;21.30;99.90;;;;;;5034461;28;20402;-49
2021/10/03 08:28:44;;;;;;;3.90;3.33;;;21.40;99.90;;;;;;5033285;28;20187;-50
2021/10/03 08:31:10;;;;;;;4.07;3.40;;;21.60;99.90;;;;;;5034741;28;20217;-53
2021/10/03 08:33:37;;;;;;;4.60;3.20;;;21.80;99.90;;;;;;5034017;28;20452;-51
2021/10/03 08:36:03;;;;;;;3.80;3.50;;;21.90;99.90;;;;;;5034346;28;20164;-51
2021/10/03 08:38:29;;;;;;;3.87;3.50;;;21.70;99.90;;;;;;5034138;28;20421;-50
2021/10/03 08:40:55;;;;;;;5.00;4.03;;;21.50;99.90;;;;;;5032097;28;20429;-56
2021/10/03 08:43:21;;;;;;;7.70;4.00;;;21.80;99.90;;;;;;5044637;28;20352;-59
2021/10/03 08:45:47;;;;;;;3.57;3.27;;;22.00;99.90;;;;;;5045418;28;20501;-59
2021/10/03 08:48:15;;;;;;;4.83;3.90;;;21.90;99.90;;;;;;5032752;28;20426;-49
2021/10/03 08:50:42;;;;;;;4.27;3.40;;;22.00;99.90;;;;;;5033447;28;20417;-51
2021/10/03 08:53:08;;;;;;;3.80;3.40;;;22.10;99.90;;;;;;5033056;28;20501;-53
2021/10/03 08:55:33;;;;;;;3.90;3.50;;;22.30;99.90;;;;;;5033443;28;20428;-50
2021/10/03 08:57:59;;;;;;;3.83;3.50;;;22.30;99.90;;;;;;5033939;28;20607;-51
2021/10/03 09:00:27;;;;;;;2.97;2.77;;;22.30;99.90;;;;;;5033561;28;20534;-53
2021/10/03 09:03:04;;;;;;;3.27;2.97;;;22.20;99.90;;;;;;5033113;28;20822;-59
2021/10/03 09:05:35;;;;;;;3.60;3.30;;;22.20;99.90;;;;;;5033427;28;20781;-58
2021/10/03 09:08:17;;;;;;;4.90;3.30;;;22.20;99.90;;;;;;5051904;28;20451;-51
2021/10/03 09:10:45;;;;;;;4.43;3.07;;;22.00;99.90;;;;;;5052814;28;20401;-53
2021/10/03 09:13:11;;;;;;;3.77;3.03;;;21.60;99.90;;;;;;5052528;28;20417;-51
2021/10/03 09:15:37;;;;;;;2.60;2.40;;;21.60;99.90;;;;;;5053440;28;20797;-51
2021/10/03 09:18:06;;;;;;;3.03;2.73;;;21.40;99.90;;;;;;5043769;28;21025;-59
2021/10/03 09:20:31;;;;;;;3.20;2.93;;;21.50;99.90;;;;;;5033132;28;20266;-59
2021/10/03 09:22:57;;;;;;;2.57;2.20;;;21.60;99.90;;;;;;5032922;28;20540;-59
2021/10/03 09:25:53;;;;;;;4.40;2.77;;;21.60;99.90;;;;;;5032867;28;20178;-57
2021/10/03 09:28:24;;;;;;;2.53;2.33;;;21.50;99.90;;;;;;5032385;28;20993;-53
2021/10/03 09:31:07;;;;;;;3.20;2.23;;;21.60;99.90;;;;;;5032956;28;20490;-51
2021/10/03 09:33:49;;;;;;;2.73;2.53;;;21.70;99.90;;;;;;5033198;28;20425;-56
2021/10/03 09:36:21;;;;;;;3.17;2.80;;;21.60;99.90;;;;;;5033106;28;20420;-56
2021/10/03 09:39:07;;;;;;;3.03;2.83;;;21.50;99.90;;;;;;5032554;28;20422;-49
2021/10/03 09:41:38;;;;;;;3.67;2.70;;;21.60;99.90;;;;;;5033595;28;20469;-50
2021/10/03 09:44:07;;;;;;;3.13;2.93;;;21.70;99.90;;;;;;5032944;28;20425;-49
2021/10/03 09:46:51;;;;;;;4.40;4.00;;;22.00;99.90;;;;;;5033350;28;20398;-49
2021/10/03 09:49:26;;;;;;;2.43;1.87;;;22.20;99.90;;;;;;5034305;28;20479;-58
2021/10/03 09:51:52;;;;;;;3.00;2.50;;;21.90;99.90;;;;;;5053186;28;20432;-57
2021/10/03 09:54:19;;;;;;;2.97;2.67;;;22.10;99.90;;;;;;5052599;28;20411;-58
2021/10/03 09:56:47;;;;;;;2.80;2.57;;;22.30;99.90;;;;;;5053071;28;20413;-56
2021/10/03 09:59:13;;;;;;;2.93;2.73;;;22.30;99.90;;;;;;5052605;28;20961;-57
2021/10/03 10:01:47;;;;;;;3.13;2.90;;;22.30;99.90;;;;;;5052723;28;20535;-58
2021/10/03 10:04:17;;;;;;;3.00;2.70;;;22.20;99.90;;;;;;5052877;28;20641;-57
2021/10/03 10:06:43;;;;;;;2.57;2.37;;;22.00;99.90;;;;;;5052791;28;20775;-56
2021/10/03 10:09:18;;;;;;;2.83;2.63;;;21.90;99.90;;;;;;5052353;28;20421;-59
2021/10/03 10:12:06;;;;;;;4.23;3.03;;;21.80;99.90;;;;;;5052939;28;20424;-58
2021/10/03 10:14:35;;;;;;;3.10;2.80;;;21.80;99.90;;;;;;5052655;28;20447;-59
2021/10/03 10:17:26;;;;;;;2.93;2.60;;;21.30;99.90;;;;;;5052448;28;20445;-54
2021/10/03 10:19:55;;;;;;;2.87;2.67;;;21.40;99.90;;;;;;5012614;28;20460;-51
2021/10/03 10:22:28;;;;;;;3.17;2.90;;;21.50;99.90;;;;;;5013124;28;20534;-50
2021/10/03 10:24:57;;;;;;;3.90;2.77;;;21.50;99.90;;;;;;5012283;28;20467;-53
2021/10/03 10:27:29;;;;;;;3.27;2.97;;;21.30;99.90;;;;;;5017214;28;20418;-52
2021/10/03 10:29:57;;;;;;;3.50;2.87;;;21.30;99.90;;;;;;5017040;28;20478;-58
2021/10/03 10:32:24;;;;;;;3.00;2.70;;;21.50;99.90;;;;;;5029937;28;20417;-58
2021/10/03 10:35:07;;;;;;;2.40;2.20;;;21.70;99.90;;;;;;5036075;28;20402;-55
2021/10/03 10:37:51;;;;;;;3.37;3.07;;;21.50;99.90;;;;;;5036530;28;20425;-58
2021/10/03 10:40:26;;;;;;;3.80;3.50;;;21.50;99.90;;;;;;5034341;28;20402;-53
2021/10/03 10:42:54;;;;;;;3.00;2.80;;;21.80;99.90;;;;;;5036626;28;20821;-52
2021/10/03 10:45:30;;;;;;;2.60;2.40;;;22.00;99.90;;;;;;5036750;28;20422;-51
2021/10/03 10:48:10;;;;;;;3.03;2.77;;;22.00;99.90;;;;;;5037120;28;20437;-51
2021/10/03 10:50:54;;;;;;;2.93;2.63;;;21.90;99.90;;;;;;5035859;28;20406;-50
2021/10/03 10:53:32;;;;;;;2.93;2.73;;;22.20;99.90;;;;;;5035935;28;20402;-50
2021/10/03 10:56:30;;;;;;;3.07;2.77;;;22.40;99.90;;;;;;5036539;28;20382;-55
2021/10/03 10:58:55;;;;;;;2.77;2.57;;;22.70;99.90;;;;;;4992835;28;20442;-49
2021/10/03 11:01:29;;;;;;;6.67;2.97;;;22.90;99.90;;;;;;5036262;28;20435;-51
2021/10/03 11:03:57;;;;;;;3.40;3.10;;;23.00;99.90;;;;;;5035991;28;20166;-50
2021/10/03 11:06:23;;;;;;;3.83;2.90;;;23.00;99.90;;;;;;5036091;28;20410;-51
2021/10/03 11:09:00;;;;;;;3.10;2.90;;;22.50;99.90;;;;;;5035662;28;20501;-53
2021/10/03 11:11:28;;;;;;;5.23;3.43;;;22.30;99.90;;;;;;5035685;28;20167;-51
2021/10/03 11:13:56;;;;;;;6.47;2.70;;;22.40;99.90;;;;;;5035844;28;20406;-48
2021/10/03 11:16:38;;;;;;;6.90;2.73;;;22.50;99.90;;;;;;5035977;28;20406;-50
2021/10/03 11:19:14;;;;;;;3.20;2.80;;;22.20;99.90;;;;;;5035264;28;20452;-52
2021/10/03 11:21:56;;;;;;;2.57;2.37;;;22.20;99.90;;;;;;5035660;28;20449;-51
2021/10/03 11:24:26;;;;;;;3.47;3.17;;;22.40;99.90;;;;;;5035200;28;20394;-58
2021/10/03 11:26:54;;;;;;;3.80;3.10;;;22.50;99.90;;;;;;5035764;28;20447;-56
2021/10/03 11:29:22;;;;;;;3.30;3.00;;;22.20;99.90;;;;;;5035409;28;20425;-58
2021/10/03 11:31:50;;;;;;;3.60;2.70;;;22.30;99.90;;;;;;5035403;28;20394;-55
2021/10/03 11:34:31;;;;;;;3.77;2.57;;;22.50;99.90;;;;;;5035500;28;20410;-58
2021/10/03 11:36:59;;;;;;;3.73;3.00;;;22.50;99.90;;;;;;5035410;28;20522;-55
2021/10/03 11:39:44;;;;;;;3.20;2.90;;;22.70;99.90;;;;;;5034956;28;20454;-56
2021/10/03 11:42:12;;;;;;;3.27;2.97;;;22.80;99.90;;;;;;5035108;28;20496;-56
2021/10/03 11:44:40;;;;;;;3.40;3.10;;;22.80;99.90;;;;;;5035369;28;20395;-58
2021/10/03 11:47:16;;;;;;;4.60;2.37;;;22.50;99.90;;;;;;5035024;28;20892;-52
2021/10/03 11:49:44;;;;;;;3.50;2.97;;;22.50;99.90;;;;;;5034635;28;20398;-55
2021/10/03 11:52:14;;;;;;;2.73;2.40;;;22.20;99.90;;;;;;5034944;28;20410;-55
2021/10/03 11:54:48;;;;;;;2.53;2.33;;;22.10;99.90;;;;;;5033442;28;20977;-56
2021/10/03 11:57:27;;;;;;;3.27;2.60;;;21.90;99.90;;;;;;5035424;28;20390;-57
2021/10/03 12:00:08;;;;;;;3.43;3.13;;;21.90;99.90;;;;;;5033491;28;20523;-57
2021/10/03 12:02:39;;;;;;;3.43;2.90;;;21.90;99.90;;;;;;5034693;28;20454;-58
2021/10/03 12:05:06;;;;;;;3.30;2.80;;;21.80;99.90;;;;;;5034632;28;20391;-57
2021/10/03 12:07:32;;;;;;;5.43;3.20;;;21.90;99.90;;;;;;5034547;28;20417;-58
2021/10/03 12:10:05;;;;;;;3.23;3.03;;;22.20;99.90;;;;;;5034325;28;20410;-49
2021/10/03 12:12:53;;;;;;;3.40;3.00;;;22.50;99.90;;;;;;5035019;28;20160;-50
2021/10/03 12:15:36;;;;;;;4.17;2.67;;;22.50;99.90;;;;;;5034381;28;20463;-50
2021/10/03 12:18:03;;;;;;;4.50;3.23;;;22.50;99.90;;;;;;5034197;28;20540;-51
2021/10/03 12:20:52;;;;;;;2.80;2.60;;;22.60;99.90;;;;;;5034202;28;20395;-49
2021/10/03 12:23:20;;;;;;;3.40;2.80;;;22.90;99.90;;;;;;5034907;28;20529;-57
2021/10/03 12:25:47;;;;;;;3.73;2.80;;;23.20;99.90;;;;;;5034044;28;20403;-58
2021/10/03 12:28:12;;;;;;;4.27;3.20;;;23.10;99.90;;;;;;5034033;28;20926;-55
2021/10/03 12:30:46;;;;;;;2.97;2.77;;;23.40;99.90;;;;;;5032879;28;20472;-56
2021/10/03 12:33:12;;;;;;;3.47;2.93;;;23.50;99.90;;;;;;5032599;28;20213;-56
2021/10/03 12:35:39;;;;;;;3.30;3.00;;;23.40;99.90;;;;;;5014205;28;20415;-53
2021/10/03 12:38:05;;;;;;;10.20;3.13;;;23.50;99.90;;;;;;5014267;28;20194;-57
2021/10/03 12:40:30;;;;;;;3.33;3.03;;;23.20;99.90;;;;;;5013985;28;20410;-58
2021/10/03 12:42:59;;;;;;;3.00;2.70;;;22.90;99.90;;;;;;5014266;28;20947;-58
2021/10/03 12:45:25;;;;;;;4.20;2.50;;;23.00;99.90;;;;;;5014749;28;20246;-57
2021/10/03 12:47:50;;;;;;;6.17;2.83;;;23.10;99.90;;;;;;5019487;28;20459;-50
2021/10/03 12:50:16;;;;;;;4.30;3.17;;;23.10;99.90;;;;;;5033829;28;20167;-52
2021/10/03 12:52:42;;;;;;;3.83;2.90;;;23.20;99.90;;;;;;5034189;28;20587;-56